Terminal Aerodrome Forecast
Issued by NWS

Home | Current Version | Previous Version | Text Only | Print | Product List | Glossary On
Versions: 1 2 3 4 5 6 7 8 9 10 11 12
647
FTAK31 PAJN 242320
TAFAGY
TAF
PAGY 242320Z 2500/2524 21015KT P6SM OVC040
     FM250900 21008KT P6SM VCSH BKN030 OVC040
     FM252000 21010KT P6SM SCT030 BKN050
      AMD LTD TO CLD VIS AND WIND=

USA.gov is the U.S. government's official web portal to all federal, state and local government web resources and services.